createdAt,value
2022-11-14T00:00:59.200Z,330.27
2022-11-14T00:02:01.127Z,365.30
2022-11-14T00:03:06.233Z,320.92
2022-11-14T00:04:08.107Z,340.88
2022-11-14T00:05:10.034Z,283.27
2022-11-14T00:06:12.192Z,338.08
2022-11-14T00:07:14.595Z,525.42
2022-11-14T00:08:22.632Z,505.77
2022-11-14T00:09:28.825Z,330.85
2022-11-14T00:10:30.978Z,657.28
2022-11-14T00:11:32.920Z,343.85
2022-11-14T00:12:34.788Z,476.73
2022-11-14T00:13:36.985Z,538.08
2022-11-14T00:14:38.814Z,512.58
2022-11-14T00:15:40.741Z,505.27
2022-11-14T00:16:43.134Z,548.22
2022-11-14T00:17:45.067Z,252.50
2022-11-14T00:18:47.428Z,333.67
2022-11-14T00:19:49.543Z,378.52
2022-11-14T00:20:53.163Z,217.77
2022-11-14T00:21:55.251Z,250.05
2022-11-14T00:22:57.824Z,433.67
2022-11-14T00:23:59.556Z,535.63
2022-11-14T00:25:01.673Z,229.95
2022-11-14T00:26:03.650Z,480.63
2022-11-14T00:27:05.497Z,632.60
2022-11-14T00:28:07.445Z,359.35
2022-11-14T00:29:11.748Z,311.67
2022-11-14T00:30:13.804Z,199.15
2022-11-14T00:31:15.691Z,210.57
2022-11-14T00:32:17.632Z,180.77
2022-11-14T00:33:21.050Z,232.45
2022-11-14T00:34:22.978Z,181.98
2022-11-14T00:35:24.830Z,417.52
2022-11-14T00:36:27.019Z,360.42
2022-11-14T00:37:28.823Z,243.52
2022-11-14T00:38:30.834Z,277.33
2022-11-14T00:39:32.834Z,459.83
2022-11-14T00:40:34.563Z,224.82
2022-11-14T00:41:36.504Z,816.97
2022-11-14T00:42:38.412Z,146.55
2022-11-14T00:43:40.378Z,235.32
2022-11-14T00:44:42.388Z,284.65
2022-11-14T00:45:45.092Z,222.15
2022-11-14T00:46:46.994Z,463.77
2022-11-14T00:47:49.033Z,364.92
2022-11-14T00:48:50.953Z,435.50
2022-11-14T00:49:52.734Z,365.92
2022-11-14T00:50:54.488Z,336.55
2022-11-14T00:51:56.370Z,504.90
2022-11-14T00:52:58.120Z,370.17
2022-11-14T00:54:00.007Z,512.20
2022-11-14T00:55:02.229Z,224.00
2022-11-14T00:56:04.644Z,702.45
2022-11-14T00:57:06.662Z,165.60
2022-11-14T00:58:08.579Z,528.42
2022-11-14T00:59:10.360Z,168.07
2022-11-14T01:00:14.119Z,540.75
2022-11-14T01:01:16.188Z,715.83
2022-11-14T01:02:18.465Z,556.92
2022-11-14T01:03:20.235Z,577.83
2022-11-14T01:04:22.630Z,880.17
2022-11-14T01:05:25.859Z,309.17
2022-11-14T01:06:27.600Z,205.02
2022-11-14T01:07:29.694Z,161.93
2022-11-14T01:08:32.491Z,197.00
2022-11-14T01:09:35.980Z,335.92
2022-11-14T01:10:44.317Z,582.10
2022-11-14T01:11:46.510Z,252.63
2022-11-14T01:12:48.570Z,481.50
2022-11-14T01:13:50.735Z,569.20
2022-11-14T01:14:52.558Z,271.50
2022-11-14T01:15:55.104Z,215.65
2022-11-14T01:16:57.075Z,224.80
2022-11-14T01:17:59.554Z,538.92
2022-11-14T01:19:02.257Z,282.25
2022-11-14T01:20:05.139Z,320.95
2022-11-14T01:21:11.229Z,406.60
2022-11-14T01:22:13.185Z,229.75
2022-11-14T01:23:16.690Z,604.25
2022-11-14T01:24:18.584Z,372.10
2022-11-14T01:25:20.377Z,364.88
2022-11-14T01:26:22.281Z,447.45
2022-11-14T01:27:25.254Z,811.75
2022-11-14T01:28:27.538Z,622.28
2022-11-14T01:29:30.073Z,425.75
2022-11-14T01:30:32.169Z,345.20
2022-11-14T01:31:34.298Z,199.52
2022-11-14T01:32:36.539Z,437.40
2022-11-14T01:33:38.837Z,321.27
2022-11-14T01:34:40.973Z,207.95
2022-11-14T01:35:43.149Z,176.60
2022-11-14T01:36:45.182Z,271.83
2022-11-14T01:37:46.974Z,181.85
2022-11-14T01:38:53.010Z,402.73
2022-11-14T01:39:54.933Z,211.73
2022-11-14T01:40:56.734Z,212.13
2022-11-14T01:41:58.804Z,405.63
2022-11-14T01:43:18.977Z,282.17
2022-11-14T01:44:52.922Z,276.85
2022-11-14T01:46:01.019Z,184.35
2022-11-14T01:47:02.979Z,349.05
2022-11-14T01:48:05.052Z,385.75
2022-11-14T01:49:20.737Z,188.45
2022-11-14T01:50:22.643Z,189.15
2022-11-14T01:51:36.348Z,149.88
2022-11-14T01:52:40.213Z,445.77
2022-11-14T01:53:43.180Z,385.63
2022-11-14T01:54:52.493Z,214.52
2022-11-14T01:55:58.327Z,205.32
2022-11-14T01:57:03.347Z,636.70
2022-11-14T01:58:05.579Z,257.92
2022-11-14T01:59:10.733Z,169.63
2022-11-14T02:00:13.477Z,747.47
2022-11-14T02:01:15.251Z,219.10
2022-11-14T02:02:22.678Z,564.95
2022-11-14T02:03:25.128Z,317.13
2022-11-14T02:04:39.135Z,312.10
2022-11-14T02:05:42.989Z,262.25
2022-11-14T02:06:46.042Z,273.65
2022-11-14T02:07:48.117Z,758.38
2022-11-14T02:08:51.747Z,405.58
2022-11-14T02:09:56.094Z,225.57
2022-11-14T02:10:58.273Z,266.83
2022-11-14T02:12:02.439Z,279.65
2022-11-14T02:13:04.322Z,334.45
2022-11-14T02:14:07.572Z,245.75
2022-11-14T02:15:10.501Z,236.05
2022-11-14T02:16:12.475Z,417.55
2022-11-14T02:17:31.918Z,298.88
2022-11-14T02:18:33.839Z,303.00
2022-11-14T02:19:45.955Z,310.50
2022-11-14T02:20:47.862Z,305.60
2022-11-14T02:21:49.690Z,297.55
2022-11-14T02:22:51.621Z,496.90
2022-11-14T02:23:53.353Z,324.95
2022-11-14T02:24:55.446Z,326.45
2022-11-14T02:25:57.716Z,307.63
2022-11-14T02:26:59.650Z,294.95
2022-11-14T02:28:02.644Z,344.02
2022-11-14T02:29:05.838Z,454.58
2022-11-14T02:30:12.307Z,370.20
2022-11-14T02:33:08.844Z,455.85
2022-11-14T02:34:02.422Z,203.95
2022-11-14T02:35:04.557Z,229.70
2022-11-14T02:36:06.902Z,170.15
2022-11-14T02:37:08.921Z,164.15
2022-11-14T02:38:10.874Z,177.30
2022-11-14T02:39:12.886Z,174.50
2022-11-14T02:40:14.872Z,145.15
2022-11-14T02:41:16.934Z,191.32
2022-11-14T02:42:18.889Z,225.50
2022-11-14T02:43:21.666Z,464.77
2022-11-14T02:44:23.497Z,233.88
2022-11-14T02:45:26.002Z,222.65
2022-11-14T02:46:27.803Z,137.45
2022-11-14T02:47:29.731Z,222.30
2022-11-14T02:48:31.906Z,192.68
2022-11-14T02:49:34.347Z,407.65
2022-11-14T02:50:36.226Z,152.80
2022-11-14T02:51:38.203Z,248.93
2022-11-14T02:52:40.245Z,211.02
2022-11-14T02:53:42.193Z,224.70
2022-11-14T02:54:44.220Z,256.75
2022-11-14T02:55:46.124Z,311.55
2022-11-14T02:56:47.895Z,194.57
2022-11-14T02:57:49.828Z,173.70
2022-11-14T02:58:52.076Z,230.38
2022-11-14T02:59:54.279Z,226.82
2022-11-14T03:01:19.198Z,411.38
2022-11-14T03:02:18.077Z,251.20
2022-11-14T03:03:20.029Z,219.70
2022-11-14T03:04:23.576Z,299.25
2022-11-14T03:05:26.088Z,342.95
2022-11-14T03:06:28.140Z,214.30
2022-11-14T03:07:30.110Z,446.33
2022-11-14T03:08:32.307Z,285.92
2022-11-14T03:09:34.448Z,263.95
2022-11-14T03:10:36.624Z,422.92
2022-11-14T03:11:39.272Z,307.23
2022-11-14T03:12:41.183Z,460.27
2022-11-14T03:13:43.129Z,309.90
2022-11-14T03:14:45.415Z,256.88
2022-11-14T03:15:47.379Z,638.95
2022-11-14T03:16:49.301Z,443.50
2022-11-14T03:17:51.727Z,233.13
2022-11-14T03:18:53.896Z,280.17
2022-11-14T03:19:55.761Z,358.45
2022-11-14T03:20:57.692Z,248.10
2022-11-14T03:21:59.860Z,323.23
2022-11-14T03:23:01.869Z,240.52
2022-11-14T03:24:03.839Z,263.00
2022-11-14T03:25:06.236Z,444.02
2022-11-14T03:26:10.556Z,291.83
2022-11-14T03:27:12.386Z,222.43
2022-11-14T03:28:14.273Z,217.85
2022-11-14T03:29:16.264Z,318.13
2022-11-14T03:30:18.610Z,554.42
2022-11-14T03:31:20.555Z,474.67
2022-11-14T03:32:22.549Z,582.47
2022-11-14T03:33:24.564Z,765.22
2022-11-14T03:34:27.054Z,374.25
2022-11-14T03:35:28.792Z,457.92
2022-11-14T03:36:30.628Z,265.17
2022-11-14T03:37:32.536Z,267.30
2022-11-14T03:38:35.074Z,300.33
2022-11-14T03:39:37.319Z,287.05
2022-11-14T03:40:42.390Z,516.13
2022-11-14T03:41:44.321Z,307.95
2022-11-14T03:42:46.227Z,465.15
2022-11-14T03:43:48.115Z,272.40
2022-11-14T03:44:50.039Z,317.25
2022-11-14T03:45:52.212Z,315.65
2022-11-14T03:46:54.634Z,341.98
2022-11-14T03:47:57.642Z,394.73
2022-11-14T03:48:59.574Z,259.50
2022-11-14T03:50:01.373Z,293.58
2022-11-14T03:51:03.569Z,315.92
2022-11-14T03:52:05.548Z,231.60
2022-11-14T03:53:07.875Z,281.63
2022-11-14T03:54:09.830Z,271.98
2022-11-14T03:55:11.960Z,302.52
2022-11-14T03:56:14.203Z,268.70
2022-11-14T03:57:16.132Z,245.93
2022-11-14T03:58:18.346Z,242.13
2022-11-14T03:59:20.113Z,323.08
2022-11-14T04:00:22.129Z,315.90
2022-11-14T04:01:24.070Z,330.42
2022-11-14T04:02:26.017Z,274.85
2022-11-14T04:03:27.947Z,210.40
2022-11-14T04:04:29.883Z,267.15
2022-11-14T04:05:32.091Z,403.00
2022-11-14T04:06:34.027Z,244.07
2022-11-14T04:07:36.073Z,305.83
2022-11-14T04:08:40.792Z,277.85
2022-11-14T04:09:44.936Z,200.65
2022-11-14T04:10:49.913Z,269.83
2022-11-14T04:11:51.676Z,257.25
2022-11-14T04:12:54.284Z,259.85
2022-11-14T04:13:56.029Z,303.55
2022-11-14T04:14:58.125Z,206.55
2022-11-14T04:16:00.480Z,342.73
2022-11-14T04:17:02.352Z,192.35
2022-11-14T04:18:04.370Z,201.25
2022-11-14T04:19:06.377Z,295.30
2022-11-14T04:20:08.802Z,447.20
2022-11-14T04:21:10.692Z,238.13
2022-11-14T04:22:12.823Z,197.55
2022-11-14T04:23:14.701Z,211.00
2022-11-14T04:24:16.958Z,235.55
2022-11-14T04:25:18.867Z,206.30
2022-11-14T04:26:20.796Z,383.20
2022-11-14T04:27:22.565Z,333.05
2022-11-14T04:28:25.510Z,332.42
2022-11-14T04:29:27.516Z,196.73
2022-11-14T04:30:33.564Z,390.83
2022-11-14T04:31:36.697Z,422.33
2022-11-14T04:32:38.596Z,212.82
2022-11-14T04:33:40.949Z,209.68
2022-11-14T04:34:42.711Z,239.10
2022-11-14T04:35:44.523Z,322.23
2022-11-14T04:36:46.475Z,171.82
2022-11-14T04:37:48.626Z,328.75
2022-11-14T04:38:50.409Z,210.93
2022-11-14T04:39:52.303Z,336.17
2022-11-14T04:40:54.744Z,160.57
2022-11-14T04:41:56.630Z,282.52
2022-11-14T04:42:58.483Z,173.52
2022-11-14T04:44:00.436Z,240.70
2022-11-14T04:45:02.701Z,198.48
2022-11-14T04:46:04.741Z,97.93
2022-11-14T04:47:06.873Z,113.18
2022-11-14T04:48:08.627Z,105.22
2022-11-14T04:49:10.410Z,124.00
2022-11-14T04:50:12.356Z,108.28
2022-11-14T04:51:14.169Z,136.35
2022-11-14T04:52:15.920Z,104.50
2022-11-14T04:53:17.864Z,103.22
2022-11-14T04:54:19.606Z,85.50
2022-11-14T04:55:21.493Z,83.00
2022-11-14T04:56:25.507Z,77.53
2022-11-14T04:57:27.568Z,89.68
2022-11-14T04:58:29.725Z,111.68
2022-11-14T04:59:31.864Z,48.83
2022-11-14T05:00:33.724Z,72.28
2022-11-14T05:01:35.743Z,102.00
2022-11-14T05:02:37.655Z,109.47
2022-11-14T05:03:39.638Z,145.88
2022-11-14T05:04:41.585Z,174.70
2022-11-14T05:05:43.476Z,216.07
2022-11-14T05:06:45.499Z,184.60
2022-11-14T05:07:47.474Z,98.47
2022-11-14T05:08:49.300Z,131.52
2022-11-14T05:09:51.089Z,142.05
2022-11-14T05:10:53.004Z,185.93
2022-11-14T05:11:54.992Z,113.00
2022-11-14T05:12:56.865Z,148.65
2022-11-14T05:13:58.750Z,75.00
2022-11-14T05:15:00.784Z,232.48
2022-11-14T05:16:02.757Z,154.38
2022-11-14T05:17:04.720Z,156.40
2022-11-14T05:18:06.639Z,140.02
2022-11-14T05:19:08.538Z,103.82
2022-11-14T05:20:10.963Z,153.40
2022-11-14T05:21:16.340Z,173.10
2022-11-14T05:22:18.578Z,105.60
2022-11-14T05:23:22.908Z,153.82
2022-11-14T05:24:25.194Z,116.22
2022-11-14T05:25:51.673Z,106.95
2022-11-14T05:26:55.323Z,126.63
2022-11-14T05:27:57.527Z,188.45
2022-11-14T05:28:59.724Z,126.15
2022-11-14T05:30:01.638Z,228.23
2022-11-14T05:31:11.257Z,108.57
2022-11-14T05:32:16.301Z,173.70
2022-11-14T05:33:18.697Z,106.00
2022-11-14T05:34:20.692Z,131.75
2022-11-14T05:35:22.539Z,205.13
2022-11-14T05:36:24.471Z,153.23
2022-11-14T05:37:26.276Z,181.85
2022-11-14T05:38:28.968Z,158.35
2022-11-14T05:39:32.080Z,267.33
2022-11-14T05:40:34.103Z,249.77
2022-11-14T05:41:35.940Z,126.40
2022-11-14T05:42:38.107Z,148.55
2022-11-14T05:43:40.987Z,256.75
2022-11-14T05:44:42.899Z,170.07
2022-11-14T05:45:44.823Z,202.65
2022-11-14T05:46:46.963Z,150.25
2022-11-14T05:47:49.076Z,182.25
2022-11-14T05:48:51.032Z,159.60
2022-11-14T05:49:52.964Z,147.25
2022-11-14T05:50:56.384Z,169.27
2022-11-14T05:51:58.156Z,162.07
2022-11-14T05:53:00.021Z,154.80
2022-11-14T05:54:02.236Z,169.48
2022-11-14T05:55:04.232Z,164.10
2022-11-14T05:56:12.615Z,287.83
2022-11-14T05:57:14.550Z,288.45
2022-11-14T05:58:16.397Z,143.63
2022-11-14T05:59:18.493Z,213.63
2022-11-14T06:00:20.548Z,176.88
2022-11-14T06:01:22.341Z,285.52
2022-11-14T06:02:25.971Z,204.20
2022-11-14T06:03:32.145Z,200.57
2022-11-14T06:04:34.028Z,107.28
2022-11-14T06:05:36.969Z,172.52
2022-11-14T06:06:42.024Z,179.52
2022-11-14T06:07:44.104Z,214.70
2022-11-14T06:08:46.261Z,223.45
2022-11-14T06:09:49.501Z,169.20
2022-11-14T06:10:51.500Z,239.52
2022-11-14T06:11:53.520Z,138.43
2022-11-14T06:12:55.686Z,168.18
2022-11-14T06:13:58.367Z,180.43
2022-11-14T06:15:02.168Z,192.32
2022-11-14T06:16:06.549Z,177.55
2022-11-14T06:17:08.698Z,140.35
2022-11-14T06:18:10.665Z,166.73
2022-11-14T06:19:12.635Z,146.70
2022-11-14T06:20:16.106Z,160.70
2022-11-14T06:21:20.442Z,184.57
2022-11-14T06:22:22.289Z,150.75
2022-11-14T06:23:25.289Z,157.00
2022-11-14T06:24:27.097Z,170.88
2022-11-14T06:25:29.024Z,217.80
2022-11-14T06:26:32.374Z,144.30
2022-11-14T06:27:34.334Z,209.00
2022-11-14T06:28:36.352Z,235.82
2022-11-14T06:29:38.226Z,198.90
2022-11-14T06:30:41.403Z,184.35
2022-11-14T06:31:43.287Z,212.50
2022-11-14T06:32:45.056Z,212.10
2022-11-14T06:33:47.046Z,226.35
2022-11-14T06:34:48.932Z,186.38
2022-11-14T06:35:50.695Z,315.95
2022-11-14T06:36:52.592Z,240.27
2022-11-14T06:37:54.660Z,203.88
2022-11-14T06:38:56.574Z,228.13
2022-11-14T06:39:58.300Z,199.32
2022-11-14T06:41:08.486Z,276.38
2022-11-14T06:42:10.479Z,289.08
2022-11-14T06:43:12.609Z,257.92
2022-11-14T06:44:15.144Z,176.55
2022-11-14T06:45:17.186Z,335.27
2022-11-14T06:46:20.902Z,309.25
2022-11-14T06:47:22.830Z,342.90
2022-11-14T06:48:24.614Z,344.38
2022-11-14T06:49:28.073Z,296.52
2022-11-14T06:50:29.954Z,342.58
2022-11-14T06:51:32.085Z,377.95
2022-11-14T06:52:33.927Z,439.63
2022-11-14T06:53:37.158Z,411.60
2022-11-14T06:54:39.054Z,494.48
2022-11-14T06:55:40.803Z,366.17
2022-11-14T06:56:42.781Z,330.38
2022-11-14T06:57:44.914Z,368.88
2022-11-14T06:58:48.911Z,382.08
2022-11-14T06:59:50.806Z,338.63
2022-11-14T07:00:52.620Z,382.23
2022-11-14T07:01:54.586Z,501.10
2022-11-14T07:02:56.461Z,519.85
2022-11-14T07:04:00.671Z,372.67
2022-11-14T07:05:02.516Z,531.45
2022-11-14T07:06:05.787Z,619.35
2022-11-14T07:07:07.741Z,398.08
2022-11-14T07:08:09.816Z,474.48
2022-11-14T07:09:11.978Z,377.00
2022-11-14T07:10:13.979Z,500.70
2022-11-14T07:11:25.567Z,305.70
2022-11-14T07:12:28.752Z,346.73
2022-11-14T07:13:31.574Z,293.35
2022-11-14T07:14:33.463Z,309.50
2022-11-14T07:15:35.220Z,289.80
2022-11-14T07:16:36.985Z,387.98
2022-11-14T07:17:38.940Z,288.67
2022-11-14T07:18:40.993Z,413.13
2022-11-14T07:19:42.918Z,327.23
2022-11-14T07:20:44.824Z,271.92
2022-11-14T07:21:47.027Z,378.40
2022-11-14T07:22:49.005Z,389.92
2022-11-14T07:23:50.869Z,253.10
2022-11-14T07:24:52.752Z,291.05
2022-11-14T07:25:54.648Z,263.92
2022-11-14T07:26:56.381Z,313.10
2022-11-14T07:27:58.931Z,390.77
2022-11-14T07:29:02.744Z,254.98
2022-11-14T07:30:05.513Z,384.50
2022-11-14T07:31:10.033Z,230.25
2022-11-14T07:32:11.813Z,289.83
2022-11-14T07:33:13.713Z,240.98
2022-11-14T07:34:15.839Z,278.98
2022-11-14T07:35:17.725Z,269.00
2022-11-14T07:36:19.853Z,290.92
2022-11-14T07:37:21.947Z,306.40
2022-11-14T07:38:24.129Z,297.15
2022-11-14T07:39:25.992Z,266.80
2022-11-14T07:40:27.923Z,214.32
2022-11-14T07:41:29.803Z,207.32
2022-11-14T07:42:31.727Z,192.90
2022-11-14T07:43:33.730Z,214.80
2022-11-14T07:44:35.640Z,275.02
2022-11-14T07:45:37.372Z,145.88
2022-11-14T07:46:39.285Z,231.63
2022-11-14T07:47:41.181Z,192.32
2022-11-14T07:48:43.525Z,258.23
2022-11-14T07:49:45.487Z,187.27
2022-11-14T07:50:47.802Z,156.85
2022-11-14T07:51:49.838Z,213.90
2022-11-14T07:52:53.113Z,274.95
2022-11-14T07:53:56.391Z,226.68
2022-11-14T07:54:58.301Z,253.65
2022-11-14T07:56:06.142Z,269.70
2022-11-14T07:57:08.062Z,206.98
2022-11-14T07:58:10.100Z,241.27
2022-11-14T07:59:12.112Z,136.10
2022-11-14T08:00:15.415Z,215.88
2022-11-14T08:01:17.380Z,169.35
2022-11-14T08:02:19.134Z,357.02
2022-11-14T08:03:21.095Z,163.63
2022-11-14T08:04:22.844Z,199.40
2022-11-14T08:05:24.788Z,223.55
2022-11-14T08:06:26.795Z,305.00
2022-11-14T08:07:28.811Z,246.52
2022-11-14T08:08:31.360Z,243.07
2022-11-14T08:09:33.734Z,191.05
2022-11-14T08:10:35.756Z,174.52
2022-11-14T08:11:49.884Z,222.18
2022-11-14T08:13:25.156Z,246.15
2022-11-14T08:14:22.091Z,153.63
2022-11-14T08:15:24.097Z,139.02
2022-11-14T08:16:26.019Z,152.35
2022-11-14T08:17:27.919Z,121.32
2022-11-14T08:18:30.152Z,126.80
2022-11-14T08:19:32.197Z,129.43
2022-11-14T08:20:34.108Z,105.90
2022-11-14T08:21:36.785Z,156.13
2022-11-14T08:22:38.716Z,138.20
2022-11-14T08:23:40.625Z,126.40
2022-11-14T08:24:43.603Z,135.95
2022-11-14T08:25:45.759Z,176.25
2022-11-14T08:26:47.577Z,149.82
2022-11-14T08:27:49.487Z,142.35
2022-11-14T08:28:54.663Z,165.88
2022-11-14T08:29:56.571Z,162.85
2022-11-14T08:31:03.257Z,127.97
2022-11-14T08:32:05.256Z,120.38
2022-11-14T08:33:08.800Z,167.27
2022-11-14T08:34:10.601Z,182.35
2022-11-14T08:35:12.795Z,219.18
2022-11-14T08:36:14.787Z,145.32
2022-11-14T08:37:16.855Z,142.30
2022-11-14T08:38:18.772Z,135.60
2022-11-14T08:39:20.861Z,136.38
2022-11-14T08:40:22.828Z,131.18
2022-11-14T08:41:24.682Z,102.15
2022-11-14T08:42:26.483Z,102.60
2022-11-14T08:43:28.753Z,102.47
2022-11-14T08:44:30.799Z,73.53
2022-11-14T08:45:32.587Z,183.52
2022-11-14T08:46:34.483Z,141.43
2022-11-14T08:47:36.289Z,244.40
2022-11-14T08:48:38.066Z,127.97
2022-11-14T08:49:39.967Z,99.75
2022-11-14T08:50:41.728Z,95.70
2022-11-14T08:51:43.914Z,137.60
2022-11-14T08:52:51.345Z,154.75
2022-11-14T08:53:53.565Z,162.30
2022-11-14T08:54:55.486Z,152.55
2022-11-14T08:55:57.302Z,148.30
2022-11-14T08:56:59.399Z,146.43
2022-11-14T08:58:01.518Z,90.70
2022-11-14T08:59:04.738Z,97.97
2022-11-14T09:00:07.331Z,144.95
2022-11-14T09:01:10.255Z,147.60
2022-11-14T09:02:14.899Z,181.82
2022-11-14T09:03:16.916Z,166.90
2022-11-14T09:04:18.955Z,120.85
2022-11-14T09:05:21.420Z,105.05
2022-11-14T09:06:23.441Z,127.47
2022-11-14T09:07:25.384Z,116.03
2022-11-14T09:08:28.932Z,110.50
2022-11-14T09:09:31.145Z,87.55
2022-11-14T09:10:33.307Z,144.88
2022-11-14T09:11:35.254Z,142.40
2022-11-14T09:12:37.056Z,118.75
2022-11-14T09:13:39.019Z,153.25
2022-11-14T09:14:41.373Z,172.10
2022-11-14T09:15:44.095Z,214.10
2022-11-14T09:16:48.178Z,222.70
2022-11-14T09:17:54.558Z,133.48
2022-11-14T09:18:57.229Z,180.25
2022-11-14T09:19:59.472Z,299.70
2022-11-14T09:21:06.735Z,196.98
2022-11-14T09:22:11.525Z,153.95
2022-11-14T09:23:14.931Z,154.88
2022-11-14T09:24:16.976Z,212.48
2022-11-14T09:25:22.408Z,94.60
2022-11-14T09:26:24.423Z,128.25
2022-11-14T09:27:27.626Z,244.40
2022-11-14T09:28:29.634Z,127.97
2022-11-14T09:29:31.600Z,130.20
2022-11-14T09:30:35.289Z,124.55
2022-11-14T09:31:37.742Z,145.57
2022-11-14T09:32:40.277Z,218.32
2022-11-14T09:33:43.855Z,137.93
2022-11-14T09:34:45.885Z,168.60
2022-11-14T09:35:48.110Z,174.55
2022-11-14T09:36:51.646Z,215.63
2022-11-14T09:38:19.841Z,153.60
2022-11-14T09:39:21.934Z,140.30
2022-11-14T09:40:24.746Z,186.35
2022-11-14T09:41:26.883Z,117.22
2022-11-14T09:42:40.569Z,122.38
2022-11-14T09:44:20.045Z,170.73
2022-11-14T09:45:23.386Z,132.77
2022-11-14T09:46:33.052Z,115.43
2022-11-14T09:47:47.617Z,176.30
2022-11-14T09:48:52.417Z,130.32
2022-11-14T09:50:00.746Z,121.60
2022-11-14T09:51:10.644Z,100.70
2022-11-14T09:52:38.636Z,132.30
2022-11-14T09:53:48.864Z,93.90
2022-11-14T09:55:01.515Z,120.38
2022-11-14T09:56:04.722Z,121.68
2022-11-14T09:57:15.907Z,89.57
2022-11-14T09:58:22.183Z,143.82
2022-11-14T09:59:24.818Z,123.55
2022-11-14T10:00:48.779Z,126.60
2022-11-14T10:02:04.012Z,128.45
2022-11-14T10:03:33.414Z,97.05
2022-11-14T10:04:56.388Z,128.07
2022-11-14T10:06:22.937Z,114.95
2022-11-14T10:07:50.490Z,133.15
2022-11-14T10:09:11.361Z,124.05
2022-11-14T10:10:39.770Z,130.18
2022-11-14T10:11:46.481Z,61.35
2022-11-14T10:13:21.803Z,79.93
2022-11-14T10:14:49.115Z,74.97
2022-11-14T10:16:20.500Z,60.25
2022-11-14T10:17:48.608Z,75.78
2022-11-14T10:19:38.746Z,26.48
2022-11-14T10:21:01.943Z,30.17
2022-11-14T10:22:19.365Z,57.03
2022-11-14T10:23:52.000Z,53.10
2022-11-14T10:25:24.251Z,58.20
2022-11-14T10:26:31.263Z,63.13
2022-11-14T10:27:55.872Z,165.25
2022-11-14T10:29:37.132Z,50.50
2022-11-14T10:30:48.421Z,59.78
2022-11-14T10:33:20.591Z,20.90
2022-11-14T10:34:42.848Z,23.65
2022-11-14T10:36:14.082Z,45.63
2022-11-14T10:37:28.103Z,55.88
2022-11-14T10:38:43.717Z,42.25
2022-11-14T10:39:53.147Z,32.30
2022-11-14T10:41:00.767Z,33.83
2022-11-14T10:42:10.437Z,53.85
2022-11-14T10:43:23.225Z,28.33
2022-11-14T10:44:36.252Z,34.08
2022-11-14T10:45:46.993Z,26.73
2022-11-14T10:46:54.204Z,20.17
2022-11-14T10:48:13.258Z,51.60
2022-11-14T10:49:21.647Z,61.83
2022-11-14T10:50:28.851Z,54.03
2022-11-14T10:51:36.444Z,57.63
2022-11-14T10:52:47.279Z,38.40
2022-11-14T10:54:13.531Z,30.52
2022-11-14T10:55:18.382Z,39.25
2022-11-14T10:56:20.342Z,33.90
2022-11-14T10:57:23.480Z,22.55
2022-11-14T10:58:25.460Z,31.15
2022-11-14T10:59:47.630Z,28.13
2022-11-14T11:00:49.741Z,16.85
2022-11-14T11:01:55.879Z,40.05
2022-11-14T11:02:59.363Z,29.05
2022-11-14T11:04:47.266Z,29.75
2022-11-14T11:05:59.254Z,21.50
2022-11-14T11:07:07.351Z,19.13
2022-11-14T11:08:48.388Z,29.58
2022-11-14T11:10:42.562Z,25.25
2022-11-14T11:11:58.743Z,31.27
2022-11-14T11:13:04.976Z,35.65
2022-11-14T11:14:32.262Z,23.08
2022-11-14T11:15:42.716Z,11.80
2022-11-14T11:18:00.426Z,25.08
2022-11-14T11:20:44.047Z,27.23
2022-11-14T11:22:31.441Z,32.30
2022-11-14T11:24:01.035Z,18.83
2022-11-14T11:25:33.838Z,20.40
2022-11-14T11:27:00.001Z,39.88
2022-11-14T11:32:12.163Z,44.10
2022-11-14T11:35:27.777Z,28.00
2022-11-14T11:36:42.060Z,18.48
2022-11-14T11:37:59.611Z,26.80
2022-11-14T11:39:05.932Z,13.18
2022-11-14T11:40:24.491Z,15.88
2022-11-14T11:43:38.007Z,16.80
2022-11-14T11:44:58.839Z,23.25
2022-11-14T11:46:13.103Z,11.55
2022-11-14T11:47:21.879Z,10.38
2022-11-14T11:48:34.820Z,7.35
2022-11-14T11:49:57.339Z,12.13
2022-11-14T11:51:04.401Z,11.00
2022-11-14T11:52:18.723Z,12.60
2022-11-14T11:53:34.463Z,11.35
2022-11-14T11:54:50.920Z,16.92
2022-11-14T11:56:00.281Z,22.92
2022-11-14T11:57:09.214Z,14.40
2022-11-14T11:58:42.939Z,14.98
2022-11-14T11:59:51.138Z,17.60
2022-11-14T12:00:56.821Z,44.28
2022-11-14T12:01:58.685Z,44.65
2022-11-14T12:03:01.335Z,21.45
2022-11-14T12:04:04.570Z,26.05
2022-11-14T12:05:06.995Z,21.92
2022-11-14T12:06:15.434Z,14.95
2022-11-14T12:07:20.596Z,38.17
2022-11-14T12:08:24.896Z,77.35
2022-11-14T12:10:08.350Z,43.35
2022-11-14T12:10:59.758Z,20.05
2022-11-14T12:12:07.928Z,15.85
2022-11-14T12:13:31.744Z,19.92
2022-11-14T12:14:57.666Z,10.60
2022-11-14T12:16:23.784Z,14.27
2022-11-14T12:17:53.038Z,13.43
2022-11-14T12:19:34.472Z,40.35
2022-11-14T12:21:02.920Z,11.27
2022-11-14T12:22:37.123Z,15.23
2022-11-14T12:24:23.223Z,25.45
2022-11-14T12:26:15.383Z,18.83
2022-11-14T12:28:00.454Z,13.23
2022-11-14T12:29:14.273Z,8.32
2022-11-14T12:30:23.448Z,13.95
2022-11-14T12:31:31.179Z,8.27
2022-11-14T12:32:40.395Z,11.70
2022-11-14T12:33:50.979Z,27.00
2022-11-14T12:34:53.632Z,10.05
2022-11-14T12:36:00.714Z,14.40
2022-11-14T12:37:15.658Z,23.88
2022-11-14T12:38:19.877Z,23.75
2022-11-14T12:39:28.701Z,12.23
2022-11-14T12:40:36.322Z,12.05
2022-11-14T12:41:40.649Z,11.13
2022-11-14T12:42:48.239Z,11.25
2022-11-14T12:43:50.242Z,17.77
2022-11-14T12:44:52.522Z,12.00
2022-11-14T12:45:54.365Z,10.38
2022-11-14T12:47:05.329Z,11.43
2022-11-14T12:48:29.156Z,14.30
2022-11-14T12:49:49.652Z,15.80
2022-11-14T12:50:52.467Z,18.17
2022-11-14T12:51:54.328Z,16.92
2022-11-14T12:52:56.249Z,10.13
2022-11-14T12:53:58.561Z,7.25
2022-11-14T12:55:00.465Z,7.07
2022-11-14T12:56:35.444Z,6.80
2022-11-14T12:57:48.523Z,8.25
2022-11-14T12:59:09.527Z,8.20
2022-11-14T13:00:12.547Z,9.30
2022-11-14T13:01:14.486Z,8.25
2022-11-14T13:02:37.418Z,10.80
2022-11-14T13:04:12.773Z,7.18
2022-11-14T13:05:47.172Z,7.00
2022-11-14T13:07:04.031Z,10.70
2022-11-14T13:08:28.938Z,8.45
2022-11-14T13:09:36.039Z,11.77
2022-11-14T13:10:41.002Z,8.43
2022-11-14T13:12:06.594Z,9.57
2022-11-14T13:13:34.916Z,6.55
2022-11-14T13:15:13.435Z,13.20
2022-11-14T13:16:48.032Z,15.48
2022-11-14T13:18:22.214Z,41.42
2022-11-14T13:19:42.791Z,54.88
2022-11-14T13:21:03.223Z,17.13
2022-11-14T13:22:16.965Z,8.65
2022-11-14T13:23:28.198Z,7.95
2022-11-14T13:24:59.467Z,24.15
2022-11-14T13:26:10.631Z,8.07
2022-11-14T13:28:54.518Z,25.77
2022-11-14T13:29:58.261Z,20.25
2022-11-14T13:31:16.329Z,13.48
2022-11-14T13:32:41.158Z,26.27
2022-11-14T13:33:51.225Z,24.05
2022-11-14T13:35:04.728Z,29.75
2022-11-14T13:36:09.350Z,26.13
2022-11-14T13:37:24.746Z,24.80
2022-11-14T13:39:02.684Z,48.42
2022-11-14T13:40:23.530Z,74.57
2022-11-14T13:41:47.603Z,40.35
2022-11-14T13:43:11.568Z,34.80
2022-11-14T13:44:34.441Z,28.73
2022-11-14T13:45:54.087Z,37.25
2022-11-14T13:47:25.680Z,48.05
2022-11-14T13:48:30.404Z,28.48
2022-11-14T13:49:32.116Z,29.05
2022-11-14T13:50:40.799Z,27.33
2022-11-14T13:51:44.396Z,33.15
2022-11-14T13:52:48.795Z,17.48
2022-11-14T13:53:51.472Z,12.82
2022-11-14T13:54:54.369Z,23.95
2022-11-14T13:56:05.220Z,30.60
2022-11-14T13:57:23.994Z,25.15
2022-11-14T13:58:45.770Z,17.10
2022-11-14T14:00:07.177Z,14.75
2022-11-14T14:01:35.320Z,10.05
2022-11-14T14:03:12.344Z,13.30
2022-11-14T14:04:17.832Z,22.98
2022-11-14T14:05:25.219Z,23.83
2022-11-14T14:06:30.189Z,18.15
2022-11-14T14:07:58.744Z,15.50
2022-11-14T14:09:32.544Z,18.90
2022-11-14T14:11:01.353Z,21.52
2022-11-14T14:12:17.232Z,25.65
2022-11-14T14:13:24.230Z,17.55
2022-11-14T14:14:44.495Z,19.45